Adin, CA

11:17 PM PDT on October 24, 2014 (GMT -0700)
KCAMCART2 | Change Station
CLOSE
Current Station
Personal Weather Station
Location: Lookout, CA
Elevation: 4265 ft
Nearby Weather Stations

Elev 4265 ft 41.23 °N, 121.22 °W | Updated 5 seconds ago

Clear
Clear
40.7 °F
Feels Like 41 °F
N
0.0
Wind Variable Wind from North
Gusts 0.0 mph

Today
High -- | Low -- °F
--% Chance of Precip.
Yesterday
High -- | Low -- °F
Precip. -- in
7:25 AM 6:09 PM
New Moon, 2% visible
Pressure 29.84 in
Visibility 10.0 miles
Clouds Clear
Windchill 41 °F
Dew Point 35 °F
Humidity 79%
Rainfall 0.00 in
Snow Depth 0 in
UV 0 out of 12
Pollen 1.30 out of 12
Air Quality Not available.
Flu Activity Sporadic
METAR KAAT 250555Z AUTO 20006KT 10SM CLR 13/M02 A2993 RMK AO2 SLP105 T01331017 10211 20128 50000

More Conditions Fewer Conditions

Pressure 29.84 in
Visibility 10.0 miles
Clouds Clear
Windchill 41 °F
Dew Point 35 °F
Humidity 79%
Rainfall 0.00 in
Snow Depth 0 in
UV 0 out of 12
Pollen 1.30 out of 12
Air Quality Not available.
Flu Activity Sporadic
METAR KAAT 250555Z AUTO 20006KT 10SM CLR 13/M02 A2993 RMK AO2 SLP105 T01331017 10211 20128 50000

More Conditions Fewer Conditions

10-Day Weather Forecast

Almanac

Astronomy

Oct. 24, 2014 Rise Set
Actual Time 7:25 AM PDT 6:09 PM PDT
Civil Twilight 6:57 AM PDT 6:37 PM PDT
Nautical Twilight 6:25 AM PDT 7:09 PM PDT
Astronomical Twilight 5:53 AM PDT 7:41 PM PDT
Moon 8:10 AM PDT (10/24) 6:52 PM PDT (10/24)
Length of Visible Light 11h 40m
Length of Day
10h 43m
Tomorrow will be 2m 32s shorter.
New Moon, 2% of the Moon is Illuminated
Oct 25
New Moon
Oct 30
First Quarter
Nov 6
Full
Nov 14
Last Quarter
Nov 22
New

Community

WunderPhotos

Upload Photos

1,764,785 photos uploaded!

Nearby

Snow Depth

Station Depth Elevation
Adin Mountain 0 in 6200 ft
Crowder Flat 0 in 5100 ft
Independence Lake 0 in 8450 ft
Squaw Valley 0 in 8200 ft
Tahoe City Cross 0 in 6750 ft

Earthquake Activity

City Distance Mag. Time & Date
Gerlach-Empire, Nevada 89 miles 2.5 7:16 AM PDT
2014-10-23
Minimum magnitude displayed is 2.5.

Coastal Water Temperatures

Place Temperature
No Stations Reporting

Nearby Weather Stations